Time;durP1;ratioP1;P1;durP2;ratioP2;P2;SDS_P1;SDS_P2;PMS_P1;PMS_P2;Temp;Humidity;BMP_temperature;BMP_pressure;BME280_temperature;BME280_humidity;BME280_pressure;Samples;Min_cycle;Max_cycle;Signal;HPM_P1;HPM_P2
2024/03/07 06:01:25;;;;;;;114.50;42.17;;;;;;;;;;5644539;22;20615;-76
2024/03/07 06:03:51;;;;;;;116.90;38.87;;;;;;;;;;5035467;28;20433;-76
2024/03/07 06:06:17;;;;;;;109.60;39.43;;;;;;;;;;5033244;28;20898;-76
2024/03/07 06:08:44;;;;;;;124.27;42.40;;;;;;;;;;5034533;28;20498;-76
2024/03/07 06:11:10;;;;;;;101.23;38.90;;;;;;;;;;5034251;28;20464;-76
2024/03/07 06:13:36;;;;;;;110.20;38.00;;;;;;;;;;5034272;28;20405;-76
2024/03/07 06:16:05;;;;;;;128.43;41.90;;;;;;;;;;5193577;22;20497;-70
2024/03/07 06:18:31;;;;;;;117.57;41.27;;;;;;;;;;5046502;28;20415;-71
2024/03/07 06:20:57;;;;;;;118.27;38.57;;;;;;;;;;5045933;28;20900;-69
2024/03/07 06:23:24;;;;;;;105.73;38.23;;;;;;;;;;5034962;28;20472;-69
2024/03/07 06:25:54;;;;;;;107.20;39.00;;;;;;;;;;5034265;28;20432;-71
2024/03/07 06:28:20;;;;;;;105.20;40.50;;;;;;;;;;5042085;28;20404;-71
2024/03/07 06:30:46;;;;;;;101.67;39.60;;;;;;;;;;5040776;28;20907;-72
2024/03/07 06:33:12;;;;;;;108.47;39.30;;;;;;;;;;5041743;28;20422;-70
2024/03/07 06:35:39;;;;;;;112.67;40.50;;;;;;;;;;5037641;28;20534;-73
2024/03/07 06:38:06;;;;;;;113.33;40.43;;;;;;;;;;5034424;28;20401;-73
2024/03/07 06:40:32;;;;;;;114.57;41.37;;;;;;;;;;5034123;28;20923;-72
2024/03/07 06:42:58;;;;;;;102.33;39.00;;;;;;;;;;5036314;28;20511;-73
2024/03/07 06:45:24;;;;;;;88.27;35.40;;;;;;;;;;5037915;28;20471;-73
2024/03/07 06:47:52;;;;;;;81.70;32.57;;;;;;;;;;5038498;28;20492;-73
2024/03/07 06:50:19;;;;;;;77.13;33.27;;;;;;;;;;5037513;28;20443;-71
2024/03/07 06:52:48;;;;;;;69.40;27.67;;;;;;;;;;5034479;28;20463;-72
2024/03/07 06:55:18;;;;;;;79.73;31.57;;;;;;;;;;5033124;28;20430;-74
2024/03/07 06:57:44;;;;;;;67.80;28.37;;;;;;;;;;5033972;28;20536;-71
2024/03/07 07:00:11;;;;;;;62.27;27.90;;;;;;;;;;5033393;28;20421;-72
2024/03/07 07:02:44;;;;;;;60.17;27.70;;;;;;;;;;5034214;28;20969;-73
2024/03/07 07:05:11;;;;;;;71.67;28.67;;;;;;;;;;5031622;28;20472;-73
2024/03/07 07:07:43;;;;;;;74.07;27.70;;;;;;;;;;5033606;28;20958;-73
2024/03/07 07:10:15;;;;;;;60.53;28.13;;;;;;;;;;5032343;28;20413;-75
2024/03/07 07:12:41;;;;;;;61.43;29.23;;;;;;;;;;5037021;28;20425;-77
2024/03/07 07:15:08;;;;;;;53.83;26.67;;;;;;;;;;5036773;28;20424;-74
2024/03/07 07:17:33;;;;;;;55.10;25.00;;;;;;;;;;5037134;28;20849;-74
2024/03/07 07:20:00;;;;;;;59.73;27.50;;;;;;;;;;5033543;28;20409;-74
2024/03/07 07:22:26;;;;;;;54.37;24.60;;;;;;;;;;5034167;28;20449;-74
2024/03/07 07:24:52;;;;;;;60.07;26.47;;;;;;;;;;5040814;28;20409;-75
2024/03/07 07:27:18;;;;;;;55.20;25.30;;;;;;;;;;5038945;28;20430;-74
2024/03/07 07:29:45;;;;;;;60.40;28.57;;;;;;;;;;5031980;28;20429;-71
2024/03/07 07:32:12;;;;;;;61.80;27.57;;;;;;;;;;5031979;28;20429;-74
2024/03/07 07:34:38;;;;;;;67.73;28.77;;;;;;;;;;5032988;28;20501;-72
2024/03/07 07:37:04;;;;;;;62.80;26.27;;;;;;;;;;5024083;28;20510;-71
2024/03/07 07:39:31;;;;;;;59.57;26.77;;;;;;;;;;5031687;28;20704;-73
2024/03/07 07:41:57;;;;;;;54.33;26.30;;;;;;;;;;5031844;28;20556;-73
2024/03/07 07:44:23;;;;;;;62.50;28.70;;;;;;;;;;5032538;28;20413;-72
2024/03/07 07:46:49;;;;;;;60.90;26.70;;;;;;;;;;5031757;28;20508;-73
2024/03/07 07:49:19;;;;;;;60.40;27.17;;;;;;;;;;5031553;28;20413;-74
2024/03/07 07:51:45;;;;;;;57.03;25.90;;;;;;;;;;5033453;28;20793;-74
2024/03/07 07:54:11;;;;;;;76.23;29.20;;;;;;;;;;5032271;28;20463;-74
2024/03/07 07:56:37;;;;;;;68.90;31.00;;;;;;;;;;5032375;28;20429;-72
2024/03/07 07:59:04;;;;;;;72.57;29.47;;;;;;;;;;5032396;28;20420;-73
2024/03/07 08:01:30;;;;;;;56.70;25.07;;;;;;;;;;5032508;28;20417;-73
2024/03/07 08:03:58;;;;;;;64.00;27.20;;;;;;;;;;5032412;28;20457;-74
2024/03/07 08:06:24;;;;;;;62.97;27.73;;;;;;;;;;5031217;28;20456;-73
2024/03/07 08:08:51;;;;;;;57.57;24.87;;;;;;;;;;5032178;28;20417;-71
2024/03/07 08:11:17;;;;;;;62.10;26.30;;;;;;;;;;5032506;28;20831;-72
2024/03/07 08:13:43;;;;;;;54.97;22.10;;;;;;;;;;5032524;28;20417;-71
2024/03/07 08:16:11;;;;;;;47.83;22.50;;;;;;;;;;5033180;28;20506;-72
2024/03/07 08:18:38;;;;;;;53.10;23.90;;;;;;;;;;5032824;28;20445;-73
2024/03/07 08:21:04;;;;;;;53.87;23.60;;;;;;;;;;5033873;28;20421;-72
2024/03/07 08:23:31;;;;;;;49.63;23.40;;;;;;;;;;5032236;28;20465;-73
2024/03/07 08:25:57;;;;;;;59.10;22.40;;;;;;;;;;5033435;28;20432;-72
2024/03/07 08:28:24;;;;;;;56.37;23.93;;;;;;;;;;5033274;28;20409;-72
2024/03/07 08:30:50;;;;;;;52.10;22.67;;;;;;;;;;5033125;28;20437;-72
2024/03/07 08:33:16;;;;;;;48.43;22.87;;;;;;;;;;5034412;28;20788;-73
2024/03/07 08:35:42;;;;;;;46.60;20.80;;;;;;;;;;5034299;28;20429;-72
2024/03/07 08:38:09;;;;;;;47.80;22.30;;;;;;;;;;5033173;28;20413;-73
2024/03/07 08:40:35;;;;;;;56.47;24.53;;;;;;;;;;5032843;28;20416;-72
2024/03/07 08:43:03;;;;;;;51.67;22.70;;;;;;;;;;5036947;28;20465;-72
2024/03/07 08:45:33;;;;;;;48.70;22.17;;;;;;;;;;5036459;28;20425;-71
2024/03/07 08:47:59;;;;;;;51.47;23.50;;;;;;;;;;5036747;28;20405;-72
2024/03/07 08:50:26;;;;;;;40.77;20.27;;;;;;;;;;5036777;28;20413;-71
2024/03/07 08:52:52;;;;;;;49.20;22.27;;;;;;;;;;5036764;28;20435;-72
2024/03/07 08:55:20;;;;;;;41.53;21.70;;;;;;;;;;5053299;28;20480;-73
2024/03/07 08:57:48;;;;;;;48.70;20.80;;;;;;;;;;5055931;28;20717;-72
2024/03/07 09:00:29;;;;;;;45.73;21.00;;;;;;;;;;5044991;28;20909;-72
2024/03/07 09:02:57;;;;;;;50.20;21.63;;;;;;;;;;5036335;28;20532;-70
2024/03/07 09:05:23;;;;;;;49.57;23.70;;;;;;;;;;5035834;28;20425;-71
2024/03/07 09:07:50;;;;;;;43.73;20.80;;;;;;;;;;5035545;28;20417;-70
2024/03/07 09:10:19;;;;;;;51.70;23.33;;;;;;;;;;5037038;28;20698;-71
2024/03/07 09:12:48;;;;;;;59.90;24.97;;;;;;;;;;5037107;28;20412;-73
2024/03/07 09:15:16;;;;;;;53.47;23.83;;;;;;;;;;5035920;28;20835;-70
2024/03/07 09:17:42;;;;;;;51.97;24.87;;;;;;;;;;5038523;28;20436;-71
2024/03/07 09:20:14;;;;;;;55.97;22.60;;;;;;;;;;5040327;28;20788;-69
2024/03/07 09:22:50;;;;;;;47.10;21.70;;;;;;;;;;5041687;28;20619;-71
2024/03/07 09:25:16;;;;;;;47.27;21.77;;;;;;;;;;5035570;28;20814;-71
2024/03/07 09:27:42;;;;;;;48.43;22.93;;;;;;;;;;5035674;28;20439;-70
2024/03/07 09:30:12;;;;;;;52.50;23.03;;;;;;;;;;5035524;28;20474;-71
2024/03/07 09:32:40;;;;;;;63.13;22.90;;;;;;;;;;5035400;28;20480;-72
2024/03/07 09:35:07;;;;;;;53.60;23.57;;;;;;;;;;5033498;28;20508;-73
2024/03/07 09:37:33;;;;;;;44.77;20.70;;;;;;;;;;5031609;28;20468;-74
2024/03/07 09:39:59;;;;;;;52.63;23.67;;;;;;;;;;5033653;28;20409;-73
2024/03/07 09:42:27;;;;;;;49.00;23.27;;;;;;;;;;5033224;28;20461;-72
2024/03/07 09:44:56;;;;;;;54.83;21.70;;;;;;;;;;5034394;28;20504;-71
2024/03/07 09:47:28;;;;;;;48.20;23.90;;;;;;;;;;5042543;28;20455;-71
2024/03/07 09:49:54;;;;;;;44.80;21.53;;;;;;;;;;5045370;28;20424;-73
2024/03/07 09:52:20;;;;;;;46.23;22.47;;;;;;;;;;5039722;28;20410;-77
2024/03/07 09:54:46;;;;;;;43.87;24.40;;;;;;;;;;5050734;28;20421;-72
2024/03/07 09:57:13;;;;;;;45.83;21.80;;;;;;;;;;5043816;28;20434;-73
2024/03/07 09:59:43;;;;;;;48.13;23.70;;;;;;;;;;5040064;28;20449;-74
2024/03/07 10:02:11;;;;;;;56.00;23.87;;;;;;;;;;5037773;28;20457;-72
2024/03/07 10:04:36;;;;;;;41.53;21.90;;;;;;;;;;5022661;28;20408;-76
2024/03/07 10:07:03;;;;;;;44.47;22.40;;;;;;;;;;5023262;28;20513;-75
2024/03/07 10:09:32;;;;;;;50.00;22.07;;;;;;;;;;5015357;28;20410;-73
2024/03/07 10:11:58;;;;;;;44.63;23.73;;;;;;;;;;5022503;28;20414;-73
2024/03/07 10:14:24;;;;;;;44.83;23.87;;;;;;;;;;5030527;28;20452;-73
2024/03/07 10:16:50;;;;;;;51.33;25.03;;;;;;;;;;5023450;28;20508;-74
2024/03/07 10:19:16;;;;;;;51.53;24.00;;;;;;;;;;5013582;28;20430;-75
2024/03/07 10:21:42;;;;;;;51.63;25.77;;;;;;;;;;5038198;28;20421;-76
2024/03/07 10:24:10;;;;;;;47.90;24.17;;;;;;;;;;5043192;28;20415;-75
2024/03/07 10:26:37;;;;;;;51.50;25.73;;;;;;;;;;5020968;28;20434;-75
2024/03/07 10:29:04;;;;;;;47.70;23.93;;;;;;;;;;5029459;28;20411;-75
2024/03/07 10:31:33;;;;;;;58.13;24.47;;;;;;;;;;5015379;28;20426;-74
2024/03/07 10:34:00;;;;;;;52.47;23.70;;;;;;;;;;5015776;28;20406;-75
2024/03/07 10:36:26;;;;;;;55.87;24.37;;;;;;;;;;5039694;28;20468;-73
2024/03/07 10:38:55;;;;;;;52.20;24.30;;;;;;;;;;5031153;28;20417;-75
2024/03/07 10:41:24;;;;;;;50.67;23.47;;;;;;;;;;5019465;28;20449;-71
2024/03/07 10:43:57;;;;;;;47.77;23.90;;;;;;;;;;5020990;28;20457;-74
2024/03/07 10:46:25;;;;;;;54.20;25.03;;;;;;;;;;5021196;28;20901;-76
2024/03/07 10:48:55;;;;;;;51.13;24.70;;;;;;;;;;5015710;28;20556;-75
2024/03/07 10:51:26;;;;;;;52.40;24.93;;;;;;;;;;5018072;28;20413;-76
2024/03/07 10:53:52;;;;;;;52.87;23.93;;;;;;;;;;5037193;28;20416;-73
2024/03/07 10:56:21;;;;;;;48.43;23.80;;;;;;;;;;5020365;28;20446;-74
2024/03/07 10:59:02;;;;;;;51.17;24.07;;;;;;;;;;5014678;28;20984;-75
2024/03/07 11:01:33;;;;;;;52.03;24.80;;;;;;;;;;5027411;28;20425;-73
2024/03/07 11:04:00;;;;;;;48.37;23.10;;;;;;;;;;5030976;28;20567;-75
2024/03/07 11:06:26;;;;;;;52.43;25.40;;;;;;;;;;5030519;28;20810;-76
2024/03/07 11:08:52;;;;;;;47.73;24.33;;;;;;;;;;5032954;28;20420;-76
2024/03/07 11:11:18;;;;;;;56.10;25.30;;;;;;;;;;5036280;28;20420;-72
2024/03/07 11:13:45;;;;;;;53.77;24.00;;;;;;;;;;5024481;28;20446;-72
2024/03/07 11:16:14;;;;;;;55.03;24.60;;;;;;;;;;5017528;28;20485;-76
2024/03/07 11:18:40;;;;;;;55.73;25.83;;;;;;;;;;5014826;28;20787;-77
2024/03/07 11:21:07;;;;;;;54.63;24.60;;;;;;;;;;5014178;28;20414;-74
2024/03/07 11:23:38;;;;;;;50.10;23.23;;;;;;;;;;5013202;28;20489;-73
2024/03/07 11:26:07;;;;;;;54.00;25.00;;;;;;;;;;5020550;28;20433;-74
2024/03/07 11:28:34;;;;;;;51.83;23.80;;;;;;;;;;5015504;28;20434;-75
2024/03/07 11:31:15;;;;;;;52.67;25.10;;;;;;;;;;5015279;28;20416;-75
2024/03/07 11:33:43;;;;;;;55.43;24.60;;;;;;;;;;5028912;28;20409;-74
2024/03/07 11:36:11;;;;;;;58.13;24.63;;;;;;;;;;5044586;28;20441;-74
2024/03/07 11:38:37;;;;;;;52.80;26.73;;;;;;;;;;5038420;28;20437;-75
2024/03/07 11:41:08;;;;;;;55.03;25.40;;;;;;;;;;5034316;28;20428;-76
2024/03/07 11:43:35;;;;;;;54.80;25.57;;;;;;;;;;5026947;28;20454;-76
2024/03/07 11:46:01;;;;;;;57.17;24.80;;;;;;;;;;5012963;28;20474;-76
2024/03/07 11:48:27;;;;;;;58.60;25.17;;;;;;;;;;5012800;28;20472;-76
2024/03/07 11:50:55;;;;;;;61.53;28.43;;;;;;;;;;5031394;28;20506;-75
2024/03/07 11:53:21;;;;;;;51.80;24.10;;;;;;;;;;5031924;28;20421;-74
2024/03/07 11:55:51;;;;;;;55.83;26.50;;;;;;;;;;5024427;28;20632;-75
2024/03/07 11:58:17;;;;;;;52.27;24.93;;;;;;;;;;5033143;28;20432;-75
2024/03/07 12:00:47;;;;;;;60.20;25.00;;;;;;;;;;5028369;28;20491;-76
2024/03/07 12:03:14;;;;;;;59.83;25.70;;;;;;;;;;5035591;28;21045;-76
2024/03/07 12:05:41;;;;;;;55.60;25.80;;;;;;;;;;5038388;28;20530;-74
2024/03/07 12:08:09;;;;;;;58.80;26.90;;;;;;;;;;5026781;28;20849;-74
2024/03/07 12:10:36;;;;;;;68.37;26.37;;;;;;;;;;5017076;28;20426;-73
2024/03/07 12:13:02;;;;;;;55.90;24.70;;;;;;;;;;5017983;28;20417;-73
2024/03/07 12:15:28;;;;;;;62.33;26.50;;;;;;;;;;5056835;23;20433;-76
2024/03/07 12:17:55;;;;;;;52.87;25.87;;;;;;;;;;5035773;28;20460;-76
2024/03/07 12:20:24;;;;;;;56.97;26.00;;;;;;;;;;5029787;28;20812;-75
2024/03/07 12:22:56;;;;;;;64.93;28.93;;;;;;;;;;5013289;28;20529;-76
2024/03/07 12:25:24;;;;;;;47.43;23.70;;;;;;;;;;5031727;28;20413;-76
2024/03/07 12:28:06;;;;;;;51.90;23.53;;;;;;;;;;5028611;28;20441;-75
2024/03/07 12:30:37;;;;;;;62.60;27.97;;;;;;;;;;5010934;28;20509;-76
2024/03/07 12:33:04;;;;;;;61.40;25.90;;;;;;;;;;5025759;28;20416;-73
2024/03/07 12:35:31;;;;;;;63.90;25.97;;;;;;;;;;5030655;28;20422;-77
2024/03/07 12:37:57;;;;;;;59.07;27.10;;;;;;;;;;5031369;28;20451;-75
2024/03/07 12:40:23;;;;;;;59.30;27.20;;;;;;;;;;5015102;28;20418;-74
2024/03/07 12:42:55;;;;;;;63.70;26.73;;;;;;;;;;4990190;28;20628;-75
2024/03/07 12:45:21;;;;;;;66.47;27.90;;;;;;;;;;5000909;28;20903;-74
2024/03/07 12:47:52;;;;;;;68.13;30.73;;;;;;;;;;5006684;28;20426;-75
2024/03/07 12:50:21;;;;;;;52.63;24.60;;;;;;;;;;4992350;28;20493;-76
2024/03/07 12:52:51;;;;;;;56.80;25.53;;;;;;;;;;5048117;28;20432;-80
2024/03/07 12:55:24;;;;;;;61.13;25.80;;;;;;;;;;5056563;28;20418;-80
2024/03/07 12:57:50;;;;;;;62.57;28.87;;;;;;;;;;5019859;28;20453;-74
2024/03/07 13:00:19;;;;;;;62.33;26.93;;;;;;;;;;5011759;28;20414;-75
2024/03/07 13:02:48;;;;;;;67.47;27.60;;;;;;;;;;5012187;28;20645;-75
2024/03/07 13:05:24;;;;;;;66.80;27.83;;;;;;;;;;5011478;28;20454;-77
2024/03/07 13:07:50;;;;;;;55.10;27.03;;;;;;;;;;5009914;28;20410;-78
2024/03/07 13:10:18;;;;;;;64.17;27.67;;;;;;;;;;5011791;28;20407;-76
2024/03/07 13:12:45;;;;;;;51.83;26.60;;;;;;;;;;5023359;28;20912;-77
2024/03/07 13:15:11;;;;;;;59.47;27.73;;;;;;;;;;5025365;28;20513;-76
2024/03/07 13:17:37;;;;;;;52.77;25.47;;;;;;;;;;5004862;28;20452;-76
2024/03/07 13:20:11;;;;;;;59.00;27.47;;;;;;;;;;5031382;28;20413;-77
2024/03/07 13:22:37;;;;;;;60.37;25.87;;;;;;;;;;5031048;28;20463;-76
2024/03/07 13:25:04;;;;;;;55.10;25.03;;;;;;;;;;5030086;28;20413;-77
2024/03/07 13:27:30;;;;;;;55.93;24.00;;;;;;;;;;5030749;28;20436;-75
2024/03/07 13:29:56;;;;;;;58.00;26.00;;;;;;;;;;5034356;28;20413;-76
2024/03/07 13:32:22;;;;;;;49.93;24.03;;;;;;;;;;5025277;28;20421;-77
2024/03/07 13:34:48;;;;;;;54.17;24.83;;;;;;;;;;5014549;28;20402;-76
2024/03/07 13:37:18;;;;;;;55.50;24.00;;;;;;;;;;5014515;28;20495;-76
2024/03/07 13:39:45;;;;;;;53.37;26.57;;;;;;;;;;5010680;28;21056;-77
2024/03/07 13:42:11;;;;;;;61.10;27.13;;;;;;;;;;5014512;28;20457;-77
2024/03/07 13:44:39;;;;;;;54.03;26.00;;;;;;;;;;5012379;28;20471;-76
2024/03/07 13:47:06;;;;;;;56.53;25.80;;;;;;;;;;5013042;28;20434;-75
2024/03/07 13:49:34;;;;;;;58.67;28.37;;;;;;;;;;5025998;28;20466;-75
2024/03/07 13:52:10;;;;;;;59.17;26.70;;;;;;;;;;5034513;28;20467;-74
2024/03/07 13:54:40;;;;;;;55.30;26.43;;;;;;;;;;5034792;28;20416;-75
2024/03/07 13:57:19;;;;;;;59.27;30.07;;;;;;;;;;5034022;28;20437;-76
2024/03/07 14:00:13;;;;;;;60.73;29.27;;;;;;;;;;5032876;28;20460;-74
2024/03/07 14:02:59;;;;;;;58.30;28.13;;;;;;;;;;5033996;28;20461;-75
2024/03/07 14:05:44;;;;;;;58.13;26.67;;;;;;;;;;5012856;28;20469;-77
2024/03/07 14:08:20;;;;;;;56.90;27.73;;;;;;;;;;4995104;28;20937;-77
2024/03/07 14:10:58;;;;;;;64.27;29.27;;;;;;;;;;5034247;28;20935;-75
2024/03/07 14:13:50;;;;;;;63.20;29.97;;;;;;;;;;5032206;28;20430;-74
2024/03/07 14:16:22;;;;;;;61.00;28.97;;;;;;;;;;5008325;28;20457;-74
2024/03/07 14:18:50;;;;;;;58.60;29.00;;;;;;;;;;5011889;28;20422;-75
2024/03/07 14:21:35;;;;;;;62.77;29.50;;;;;;;;;;5019363;28;20417;-75
2024/03/07 14:24:03;;;;;;;64.53;27.70;;;;;;;;;;5031761;28;20464;-75
2024/03/07 14:26:48;;;;;;;58.20;28.63;;;;;;;;;;5029883;28;20523;-75
2024/03/07 14:29:27;;;;;;;63.43;27.67;;;;;;;;;;5017143;28;20432;-76
2024/03/07 14:31:53;;;;;;;58.33;27.20;;;;;;;;;;5033128;28;20417;-74
2024/03/07 14:34:19;;;;;;;60.90;27.73;;;;;;;;;;5031335;28;20424;-74
2024/03/07 14:36:50;;;;;;;57.30;26.00;;;;;;;;;;5031694;28;20425;-73
2024/03/07 14:39:22;;;;;;;48.17;25.90;;;;;;;;;;5032105;28;20406;-73
2024/03/07 14:42:02;;;;;;;56.20;26.67;;;;;;;;;;5033154;28;20444;-74
2024/03/07 14:44:28;;;;;;;58.47;26.80;;;;;;;;;;5029179;28;20913;-75
2024/03/07 14:47:06;;;;;;;63.43;27.17;;;;;;;;;;5033209;28;20523;-74
2024/03/07 14:49:32;;;;;;;55.40;26.23;;;;;;;;;;5031625;28;20857;-74
2024/03/07 14:51:58;;;;;;;57.13;26.90;;;;;;;;;;5032716;28;20500;-75
2024/03/07 14:54:25;;;;;;;51.30;25.10;;;;;;;;;;5031192;28;20824;-75
2024/03/07 14:56:52;;;;;;;59.93;25.37;;;;;;;;;;5032993;28;20429;-75
2024/03/07 14:59:18;;;;;;;50.17;24.03;;;;;;;;;;5032130;28;20889;-75
2024/03/07 15:01:44;;;;;;;56.80;24.43;;;;;;;;;;5012333;28;20709;-74
2024/03/07 15:04:11;;;;;;;60.00;27.60;;;;;;;;;;5009294;28;20473;-76
2024/03/07 15:06:38;;;;;;;53.73;26.57;;;;;;;;;;5003903;28;20445;-74
2024/03/07 15:09:09;;;;;;;59.57;26.07;;;;;;;;;;5012884;28;20509;-77
2024/03/07 15:11:37;;;;;;;53.07;25.47;;;;;;;;;;5013458;28;20441;-75
2024/03/07 15:14:04;;;;;;;51.00;23.80;;;;;;;;;;5013025;28;20468;-74
2024/03/07 15:16:34;;;;;;;67.77;28.27;;;;;;;;;;5007757;28;20857;-75
2024/03/07 15:19:01;;;;;;;52.70;24.30;;;;;;;;;;5005646;28;20418;-75
2024/03/07 15:21:28;;;;;;;63.27;25.93;;;;;;;;;;4998803;28;20410;-76
2024/03/07 15:23:54;;;;;;;55.33;25.00;;;;;;;;;;5001537;28;20466;-77
2024/03/07 15:26:23;;;;;;;55.27;24.23;;;;;;;;;;4994744;28;20431;-76
2024/03/07 15:28:49;;;;;;;52.80;24.50;;;;;;;;;;4993257;28;20406;-74
2024/03/07 15:31:19;;;;;;;51.77;23.43;;;;;;;;;;4994357;28;20471;-74
2024/03/07 15:33:46;;;;;;;48.50;24.17;;;;;;;;;;4992045;28;20988;-74
2024/03/07 15:36:12;;;;;;;51.90;24.93;;;;;;;;;;5003507;28;20811;-74
2024/03/07 15:38:38;;;;;;;64.10;24.03;;;;;;;;;;4993603;28;20419;-73
2024/03/07 15:41:04;;;;;;;57.10;24.13;;;;;;;;;;5002484;28;20453;-74
2024/03/07 15:43:30;;;;;;;51.20;23.40;;;;;;;;;;5013558;28;20467;-72
2024/03/07 15:45:57;;;;;;;51.50;23.37;;;;;;;;;;5010108;28;20473;-73
2024/03/07 15:48:24;;;;;;;54.97;25.87;;;;;;;;;;5022269;28;20416;-71
2024/03/07 15:50:51;;;;;;;45.70;22.50;;;;;;;;;;5030079;28;20417;-71
2024/03/07 15:53:17;;;;;;;47.53;23.40;;;;;;;;;;5021042;28;20430;-72
2024/03/07 15:55:43;;;;;;;55.20;24.07;;;;;;;;;;5034826;28;20799;-72
2024/03/07 15:58:10;;;;;;;57.47;24.63;;;;;;;;;;5045370;28;20409;-73
2024/03/07 16:00:37;;;;;;;48.93;23.97;;;;;;;;;;5044761;28;20414;-74
2024/03/07 16:03:04;;;;;;;49.10;23.70;;;;;;;;;;5032061;28;20518;-74
2024/03/07 16:05:31;;;;;;;54.67;24.40;;;;;;;;;;5021326;28;20493;-73
2024/03/07 16:07:57;;;;;;;59.13;22.60;;;;;;;;;;5022349;28;20409;-74
2024/03/07 16:10:24;;;;;;;54.23;23.80;;;;;;;;;;5024686;28;20456;-74
2024/03/07 16:12:51;;;;;;;47.83;22.57;;;;;;;;;;5033858;28;20420;-76
2024/03/07 16:15:20;;;;;;;54.83;23.13;;;;;;;;;;5047060;28;20429;-74
2024/03/07 16:17:46;;;;;;;54.67;23.80;;;;;;;;;;5048365;28;20548;-73
2024/03/07 16:20:13;;;;;;;45.37;22.33;;;;;;;;;;5043635;28;20417;-75
2024/03/07 16:22:40;;;;;;;52.30;23.83;;;;;;;;;;5027272;28;20469;-76
2024/03/07 16:25:07;;;;;;;53.03;23.87;;;;;;;;;;5028388;28;20414;-75
2024/03/07 16:27:33;;;;;;;47.47;22.50;;;;;;;;;;5028798;28;20452;-77
2024/03/07 16:29:59;;;;;;;49.53;24.83;;;;;;;;;;5028336;28;20442;-78
2024/03/07 16:32:27;;;;;;;47.03;22.70;;;;;;;;;;5028209;28;20434;-77
2024/03/07 16:34:55;;;;;;;51.33;22.70;;;;;;;;;;5016834;28;20406;-77
2024/03/07 16:37:24;;;;;;;54.13;23.53;;;;;;;;;;5033174;28;20655;-76
2024/03/07 16:39:50;;;;;;;48.30;21.83;;;;;;;;;;5022504;28;20411;-73
2024/03/07 16:42:16;;;;;;;49.80;21.27;;;;;;;;;;5028238;28;20553;-75
2024/03/07 16:44:42;;;;;;;55.83;23.53;;;;;;;;;;5022490;28;20414;-72
2024/03/07 16:47:09;;;;;;;50.67;22.87;;;;;;;;;;5013047;28;20492;-72
2024/03/07 16:49:39;;;;;;;44.30;21.47;;;;;;;;;;5012506;28;20417;-72
2024/03/07 16:52:08;;;;;;;46.53;21.13;;;;;;;;;;4994666;28;20419;-72
2024/03/07 16:54:35;;;;;;;49.10;22.50;;;;;;;;;;4997196;28;20415;-74
2024/03/07 16:57:01;;;;;;;58.03;23.90;;;;;;;;;;5024581;28;20446;-74
2024/03/07 16:59:29;;;;;;;45.10;20.80;;;;;;;;;;5020026;28;20426;-73
2024/03/07 17:01:55;;;;;;;53.80;20.50;;;;;;;;;;5024500;28;20413;-74
2024/03/07 17:04:21;;;;;;;44.60;21.33;;;;;;;;;;5027220;28;20409;-74
2024/03/07 17:06:47;;;;;;;48.93;22.27;;;;;;;;;;5003289;28;20461;-75
2024/03/07 17:09:19;;;;;;;44.07;21.17;;;;;;;;;;5008803;28;20422;-75
2024/03/07 17:11:45;;;;;;;51.17;22.47;;;;;;;;;;5015545;28;20513;-74
2024/03/07 17:14:13;;;;;;;46.30;21.33;;;;;;;;;;5033541;28;20464;-73
2024/03/07 17:16:39;;;;;;;47.50;21.80;;;;;;;;;;5034436;28;20453;-73
2024/03/07 17:19:09;;;;;;;37.80;20.73;;;;;;;;;;5033015;28;20411;-73
2024/03/07 17:21:36;;;;;;;40.30;18.73;;;;;;;;;;5028983;28;20763;-72
2024/03/07 17:24:02;;;;;;;44.30;19.87;;;;;;;;;;5035382;28;20456;-71
2024/03/07 17:26:31;;;;;;;46.67;23.47;;;;;;;;;;5043191;28;20483;-71
2024/03/07 17:28:57;;;;;;;46.00;21.07;;;;;;;;;;5049856;28;20419;-72
2024/03/07 17:31:23;;;;;;;41.53;19.47;;;;;;;;;;5045141;28;20409;-71
2024/03/07 17:33:51;;;;;;;42.70;20.03;;;;;;;;;;5039635;28;20424;-72
2024/03/07 17:36:18;;;;;;;41.83;20.73;;;;;;;;;;5034078;28;20550;-71
2024/03/07 17:38:44;;;;;;;42.10;19.83;;;;;;;;;;5034284;28;20417;-71
2024/03/07 17:41:12;;;;;;;39.57;20.67;;;;;;;;;;5005876;28;20452;-74
2024/03/07 17:43:38;;;;;;;39.60;18.80;;;;;;;;;;5033917;28;20463;-72
2024/03/07 17:46:06;;;;;;;36.97;18.23;;;;;;;;;;5034708;28;20455;-76
2024/03/07 17:48:32;;;;;;;35.47;16.73;;;;;;;;;;5034485;28;20405;-71
2024/03/07 17:51:03;;;;;;;38.73;17.50;;;;;;;;;;5034387;28;20905;-78
2024/03/07 17:53:29;;;;;;;41.10;17.70;;;;;;;;;;5033334;28;20954;-74
2024/03/07 17:55:55;;;;;;;37.43;17.97;;;;;;;;;;5034301;28;20432;-74
2024/03/07 17:58:21;;;;;;;32.30;16.70;;;;;;;;;;5034289;28;20413;-75
2024/03/07 18:00:48;;;;;;;37.97;17.63;;;;;;;;;;5034515;28;20416;-75
2024/03/07 18:03:19;;;;;;;35.93;17.67;;;;;;;;;;5034272;28;20460;-75
2024/03/07 18:05:51;;;;;;;39.40;19.60;;;;;;;;;;5034182;28;20448;-74
2024/03/07 18:08:17;;;;;;;32.90;18.30;;;;;;;;;;5033004;28;20410;-74
2024/03/07 18:10:47;;;;;;;37.37;19.50;;;;;;;;;;5037986;28;20418;-72
2024/03/07 18:13:14;;;;;;;37.90;18.43;;;;;;;;;;5046111;28;20439;-73
2024/03/07 18:15:43;;;;;;;41.40;17.93;;;;;;;;;;5034012;28;20426;-73
2024/03/07 18:18:09;;;;;;;35.90;17.00;;;;;;;;;;5010639;28;20407;-73
2024/03/07 18:20:39;;;;;;;37.00;18.47;;;;;;;;;;5036684;28;20416;-73
2024/03/07 18:23:08;;;;;;;40.53;18.50;;;;;;;;;;5047251;28;20464;-74
2024/03/07 18:25:35;;;;;;;34.83;17.37;;;;;;;;;;5047799;28;20429;-73
2024/03/07 18:28:03;;;;;;;40.47;18.43;;;;;;;;;;5048754;28;20404;-72
2024/03/07 18:30:30;;;;;;;34.67;17.10;;;;;;;;;;5029230;28;20422;-72
2024/03/07 18:33:07;;;;;;;45.30;19.87;;;;;;;;;;5022658;28;20410;-74
2024/03/07 18:35:34;;;;;;;36.50;18.17;;;;;;;;;;5020613;28;20456;-73
2024/03/07 18:38:01;;;;;;;38.50;18.57;;;;;;;;;;5018148;28;20475;-72
2024/03/07 18:40:27;;;;;;;44.27;21.73;;;;;;;;;;5024433;28;20425;-73
2024/03/07 18:42:53;;;;;;;42.80;19.10;;;;;;;;;;5029581;28;20457;-71
2024/03/07 18:45:21;;;;;;;37.87;18.50;;;;;;;;;;5019141;28;20417;-72
2024/03/07 18:47:54;;;;;;;41.70;17.03;;;;;;;;;;5036409;28;20444;-73
2024/03/07 18:50:24;;;;;;;40.70;19.60;;;;;;;;;;5050917;28;20468;-74
2024/03/07 18:52:52;;;;;;;45.33;19.43;;;;;;;;;;5049970;28;20436;-74
2024/03/07 18:55:21;;;;;;;42.87;19.83;;;;;;;;;;5044245;28;20515;-74
2024/03/07 18:57:52;;;;;;;37.13;18.67;;;;;;;;;;5051671;28;20843;-75
2024/03/07 19:00:28;;;;;;;43.20;19.63;;;;;;;;;;5052935;28;20409;-73
2024/03/07 19:02:57;;;;;;;44.17;19.60;;;;;;;;;;5051083;28;20445;-72
2024/03/07 19:05:33;;;;;;;42.17;19.20;;;;;;;;;;5022080;28;20435;-73
2024/03/07 19:08:14;;;;;;;42.83;19.83;;;;;;;;;;5022830;28;20426;-73
2024/03/07 19:10:42;;;;;;;39.60;19.70;;;;;;;;;;5028593;28;20430;-74
2024/03/07 19:13:10;;;;;;;46.80;19.50;;;;;;;;;;5020263;28;20450;-74
2024/03/07 19:15:37;;;;;;;46.27;20.30;;;;;;;;;;5023962;28;20414;-72
2024/03/07 19:18:09;;;;;;;39.77;19.37;;;;;;;;;;5020237;28;20813;-72
2024/03/07 19:20:37;;;;;;;41.97;20.03;;;;;;;;;;5015463;28;20425;-72
2024/03/07 19:23:04;;;;;;;45.50;19.90;;;;;;;;;;5018493;28;20509;-73
2024/03/07 19:25:33;;;;;;;41.87;19.20;;;;;;;;;;5010979;28;21004;-71
2024/03/07 19:27:59;;;;;;;40.87;19.33;;;;;;;;;;5007556;28;20929;-73
2024/03/07 19:30:28;;;;;;;39.43;18.20;;;;;;;;;;5008880;28;20921;-73
2024/03/07 19:32:54;;;;;;;43.10;18.00;;;;;;;;;;5021676;28;20941;-72
2024/03/07 19:35:20;;;;;;;42.47;21.27;;;;;;;;;;5024618;28;20509;-74
2024/03/07 19:37:53;;;;;;;44.60;18.03;;;;;;;;;;5025790;28;20464;-73
2024/03/07 19:40:19;;;;;;;48.90;17.67;;;;;;;;;;5017340;28;20415;-72
2024/03/07 19:42:51;;;;;;;41.40;20.10;;;;;;;;;;5017395;28;20520;-72
2024/03/07 19:45:21;;;;;;;50.47;20.97;;;;;;;;;;5010671;28;20438;-74
2024/03/07 19:47:47;;;;;;;45.77;19.07;;;;;;;;;;5019874;28;20446;-72
2024/03/07 19:50:17;;;;;;;40.70;21.03;;;;;;;;;;5016075;28;20427;-73
2024/03/07 19:52:46;;;;;;;44.37;17.90;;;;;;;;;;5018406;28;20429;-73
2024/03/07 19:55:12;;;;;;;39.83;21.10;;;;;;;;;;5017144;28;20508;-72
2024/03/07 19:57:40;;;;;;;42.40;21.13;;;;;;;;;;5018094;28;20460;-72
2024/03/07 20:00:10;;;;;;;40.70;18.77;;;;;;;;;;5020180;28;20429;-71
2024/03/07 20:02:39;;;;;;;38.53;20.00;;;;;;;;;;5026443;28;20458;-72
2024/03/07 20:05:08;;;;;;;35.90;17.30;;;;;;;;;;5008722;28;20445;-73
2024/03/07 20:07:35;;;;;;;37.27;17.53;;;;;;;;;;4994858;28;20435;-73
2024/03/07 20:10:06;;;;;;;43.03;20.33;;;;;;;;;;5013440;28;20437;-73
2024/03/07 20:12:32;;;;;;;40.63;21.77;;;;;;;;;;5014161;28;20986;-72
2024/03/07 20:14:58;;;;;;;37.80;18.30;;;;;;;;;;5020005;28;20422;-72
2024/03/07 20:17:24;;;;;;;41.37;19.73;;;;;;;;;;5017648;28;20932;-73
2024/03/07 20:19:50;;;;;;;43.23;20.20;;;;;;;;;;5026131;28;20422;-74
2024/03/07 20:22:18;;;;;;;43.60;19.70;;;;;;;;;;5026112;28;20432;-74